createdAt,value
2023-01-19T00:08:49.899Z,19.2
2023-01-19T00:18:56.025Z,19.2
2023-01-19T00:29:02.021Z,19.2
2023-01-19T00:39:08.101Z,19.1
2023-01-19T00:49:15.974Z,19.1
2023-01-19T00:59:22.087Z,19.1
2023-01-19T01:09:28.107Z,19.1
2023-01-19T01:19:34.182Z,19.1
2023-01-19T01:29:42.069Z,19.1
2023-01-19T01:39:48.170Z,19
2023-01-19T01:49:54.169Z,19
2023-01-19T02:00:00.240Z,19
2023-01-19T02:10:06.263Z,19
2023-01-19T02:20:12.353Z,19
2023-01-19T02:30:20.280Z,19
2023-01-19T02:40:26.345Z,19
2023-01-19T02:50:32.863Z,18.9
2023-01-19T03:00:38.427Z,18.9
2023-01-19T03:10:44.441Z,18.9
2023-01-19T03:20:50.527Z,18.9
2023-01-19T03:30:58.481Z,18.9
2023-01-19T03:41:04.502Z,18.9
2023-01-19T03:51:10.538Z,18.8
2023-01-19T04:01:18.572Z,18.8
2023-01-19T04:11:24.499Z,18.9
2023-01-19T04:21:30.616Z,19
2023-01-19T04:31:36.666Z,19.1
2023-01-19T04:41:42.667Z,19.1
2023-01-19T04:51:48.708Z,19.2
2023-01-19T05:01:54.836Z,19.4
2023-01-19T05:12:00.803Z,19.5
2023-01-19T05:22:06.874Z,19.7
2023-01-19T05:32:12.897Z,19.9
2023-01-19T05:42:20.844Z,20.1
2023-01-19T05:52:28.749Z,20.1
2023-01-19T06:02:36.741Z,20.1
2023-01-19T06:12:44.641Z,20.1
2023-01-19T06:22:52.574Z,20.1
2023-01-19T06:32:58.845Z,20.2
2023-01-19T06:43:06.555Z,20.3
2023-01-19T06:53:12.571Z,20.4
2023-01-19T07:03:18.742Z,20.4
2023-01-19T07:13:24.704Z,20.4
2023-01-19T07:23:30.798Z,20.4
2023-01-19T07:33:36.777Z,20.4
2023-01-19T07:43:44.832Z,20.4
2023-01-19T07:53:50.753Z,20.5
2023-01-19T08:03:56.870Z,20.6
2023-01-19T08:14:02.857Z,20.5
2023-01-19T08:24:10.904Z,20.5
2023-01-19T08:34:16.873Z,20.5
2023-01-19T08:44:22.893Z,20.5
2023-01-19T08:54:30.803Z,20.5
2023-01-19T09:04:36.907Z,20.5
2023-01-19T09:14:42.930Z,20.5
2023-01-19T09:24:49.034Z,20.5
2023-01-19T09:34:55.067Z,20.5
2023-01-19T09:45:01.216Z,20.5
2023-01-19T09:55:07.171Z,20.7
2023-01-19T10:05:13.198Z,20.8
2023-01-19T10:15:21.086Z,20.9
2023-01-19T10:25:27.224Z,20.5
2023-01-19T10:35:33.199Z,20.5
2023-01-19T10:45:39.453Z,20.6
2023-01-19T10:55:45.291Z,20.6
2023-01-19T11:05:51.403Z,20.7
2023-01-19T11:15:57.493Z,20.8
2023-01-19T11:26:03.485Z,20.8
2023-01-19T11:36:11.380Z,21
2023-01-19T11:46:17.470Z,21
2023-01-19T11:56:23.452Z,21
2023-01-19T12:06:29.534Z,20.9
2023-01-19T12:16:35.693Z,20.9
2023-01-19T12:26:41.643Z,21
2023-01-19T12:36:47.641Z,21
2023-01-19T12:46:53.734Z,21
2023-01-19T12:56:59.772Z,20.6
2023-01-19T13:07:05.903Z,20.7
2023-01-19T13:17:13.726Z,20.8
2023-01-19T13:27:19.805Z,20.9
2023-01-19T13:37:25.831Z,20.9
2023-01-19T13:47:31.896Z,21
2023-01-19T13:57:39.825Z,21
2023-01-19T14:07:46.003Z,21.1
2023-01-19T14:17:51.909Z,21
2023-01-19T14:27:57.993Z,21
2023-01-19T14:38:04.010Z,21
2023-01-19T14:48:10.058Z,20.9
2023-01-19T14:58:16.089Z,20.9
2023-01-19T15:08:22.170Z,20.8
2023-01-19T15:18:30.075Z,20.8
2023-01-19T15:28:36.151Z,20.7
2023-01-19T15:38:42.183Z,20.7
2023-01-19T15:48:50.124Z,20.6
2023-01-19T15:58:56.183Z,20.6
2023-01-19T16:09:03.330Z,20.6
2023-01-19T16:19:09.376Z,20.5
2023-01-19T16:29:15.444Z,20.5
2023-01-19T16:39:21.475Z,20.5
2023-01-19T16:49:28.581Z,20.5
2023-01-19T16:59:33.560Z,20.4
2023-01-19T17:09:39.635Z,20.4
2023-01-19T17:19:45.648Z,20.4
2023-01-19T17:29:51.711Z,20.4
2023-01-19T17:39:57.765Z,20.4
2023-01-19T17:50:03.846Z,20.3
2023-01-19T18:00:10.154Z,20.3
2023-01-19T18:10:17.799Z,20.3
2023-01-19T18:20:23.862Z,20.3
2023-01-19T18:30:29.923Z,20.2
2023-01-19T18:40:35.944Z,20.2
2023-01-19T18:50:42.048Z,20.2
2023-01-19T19:00:48.030Z,20.2
2023-01-19T19:10:55.973Z,20.2
2023-01-19T19:21:02.016Z,20.1
2023-01-19T19:31:10.156Z,20.1
2023-01-19T19:41:15.978Z,20.1
2023-01-19T19:51:22.067Z,20.1
2023-01-19T20:01:30.569Z,20
2023-01-19T20:11:34.164Z,20
2023-01-19T20:21:40.188Z,20
2023-01-19T20:31:46.322Z,20
2023-01-19T20:52:00.217Z,19.9
2023-01-19T21:02:06.400Z,19.9
2023-01-19T21:12:12.347Z,19.9
2023-01-19T21:22:18.342Z,19.9
2023-01-19T21:32:24.442Z,19.8
2023-01-19T21:42:32.329Z,19.8
2023-01-19T21:52:38.444Z,19.8
2023-01-19T22:02:49.409Z,19.8
2023-01-19T22:12:52.380Z,19.7
2023-01-19T22:22:58.413Z,19.7
2023-01-19T22:33:04.477Z,19.7
2023-01-19T22:43:10.508Z,19.7
2023-01-19T22:53:16.574Z,19.6
2023-01-19T23:03:22.613Z,19.6
2023-01-19T23:13:30.551Z,19.6
2023-01-19T23:23:36.596Z,19.6
2023-01-19T23:33:42.650Z,19.6
2023-01-19T23:43:48.675Z,19.5
2023-01-19T23:53:54.778Z,19.5
